Terminal Aerodrome Forecast
Issued by NWS

Home | Current Version | Previous Version | Text Only | Print | Product List | Glossary On
Versions: 1 2 3 4 5 6 7 8 9 10 11 12 13 14 15 16 17 18 19 20 21 22 23 24 25 26 27 28 29 30
000
FTUS41 KCTP 181647 AAE
TAFAOO
TAF AMD
KAOO 181647Z 1817/1912 19007KT 5SM -RA BR OVC030
      TEMPO 1817/1818 3/4SM SHRA BR OVC020
     FM181800 24008KT P6SM VCTS SCT020 BKN040CB
     FM182100 26009KT P6SM BKN035
     FM190300 28007KT 5SM BR SCT015 BKN035=

USA.gov is the U.S. government's official web portal to all federal, state and local government web resources and services.